sensor_id;sensor_type;location;lat;lon;timestamp;P1;durP1;ratioP1;P2;durP2;ratioP2
73814;SDS011;62145;55.648;37.602;2023-08-07T00:02:11;9.80;;;5.70;;
73814;SDS011;62145;55.648;37.602;2023-08-07T00:04:43;10.10;;;5.60;;
73814;SDS011;62145;55.648;37.602;2023-08-07T00:07:10;8.88;;;5.68;;
73814;SDS011;62145;55.648;37.602;2023-08-07T00:09:38;10.80;;;6.20;;
73814;SDS011;62145;55.648;37.602;2023-08-07T00:12:04;10.43;;;6.25;;
73814;SDS011;62145;55.648;37.602;2023-08-07T00:14:30;9.73;;;5.83;;
73814;SDS011;62145;55.648;37.602;2023-08-07T00:16:56;11.00;;;6.57;;
73814;SDS011;62145;55.648;37.602;2023-08-07T00:19:22;9.73;;;5.47;;
73814;SDS011;62145;55.648;37.602;2023-08-07T00:21:48;11.57;;;5.85;;
73814;SDS011;62145;55.648;37.602;2023-08-07T00:24:14;10.43;;;5.80;;
73814;SDS011;62145;55.648;37.602;2023-08-07T00:26:40;10.32;;;5.68;;
73814;SDS011;62145;55.648;37.602;2023-08-07T00:29:06;12.50;;;6.20;;
73814;SDS011;62145;55.648;37.602;2023-08-07T00:31:32;11.05;;;5.75;;
73814;SDS011;62145;55.648;37.602;2023-08-07T00:33:58;12.30;;;6.20;;
73814;SDS011;62145;55.648;37.602;2023-08-07T00:36:25;11.23;;;5.80;;
73814;SDS011;62145;55.648;37.602;2023-08-07T00:38:54;12.60;;;5.97;;
73814;SDS011;62145;55.648;37.602;2023-08-07T00:41:20;12.73;;;6.20;;
73814;SDS011;62145;55.648;37.602;2023-08-07T00:43:46;13.03;;;6.37;;
73814;SDS011;62145;55.648;37.602;2023-08-07T00:46:12;9.40;;;5.45;;
73814;SDS011;62145;55.648;37.602;2023-08-07T00:48:38;10.52;;;5.72;;
73814;SDS011;62145;55.648;37.602;2023-08-07T00:51:04;10.70;;;5.95;;
73814;SDS011;62145;55.648;37.602;2023-08-07T00:53:37;9.97;;;6.10;;
73814;SDS011;62145;55.648;37.602;2023-08-07T00:56:09;10.35;;;5.80;;
73814;SDS011;62145;55.648;37.602;2023-08-07T00:58:39;9.55;;;5.90;;
73814;SDS011;62145;55.648;37.602;2023-08-07T01:01:17;14.85;;;6.30;;
73814;SDS011;62145;55.648;37.602;2023-08-07T01:03:47;9.70;;;6.32;;
73814;SDS011;62145;55.648;37.602;2023-08-07T01:06:14;10.87;;;6.00;;
73814;SDS011;62145;55.648;37.602;2023-08-07T01:09:05;11.32;;;6.30;;
73814;SDS011;62145;55.648;37.602;2023-08-07T01:11:36;12.95;;;6.70;;
73814;SDS011;62145;55.648;37.602;2023-08-07T01:14:37;11.32;;;6.07;;
73814;SDS011;62145;55.648;37.602;2023-08-07T01:17:09;14.15;;;6.10;;
73814;SDS011;62145;55.648;37.602;2023-08-07T01:19:43;10.23;;;6.10;;
73814;SDS011;62145;55.648;37.602;2023-08-07T01:22:12;12.68;;;6.03;;
73814;SDS011;62145;55.648;37.602;2023-08-07T01:24:53;10.43;;;6.15;;
73814;SDS011;62145;55.648;37.602;2023-08-07T01:27:35;12.52;;;6.60;;
73814;SDS011;62145;55.648;37.602;2023-08-07T01:30:40;12.93;;;6.32;;
73814;SDS011;62145;55.648;37.602;2023-08-07T01:33:31;12.13;;;6.50;;
73814;SDS011;62145;55.648;37.602;2023-08-07T01:36:10;9.93;;;6.20;;
73814;SDS011;62145;55.648;37.602;2023-08-07T01:38:41;10.18;;;6.15;;
73814;SDS011;62145;55.648;37.602;2023-08-07T01:41:11;9.95;;;6.30;;
73814;SDS011;62145;55.648;37.602;2023-08-07T01:43:41;10.98;;;6.30;;
73814;SDS011;62145;55.648;37.602;2023-08-07T01:46:21;9.53;;;6.17;;
73814;SDS011;62145;55.648;37.602;2023-08-07T01:48:57;11.38;;;6.45;;
73814;SDS011;62145;55.648;37.602;2023-08-07T01:51:24;11.18;;;5.80;;
73814;SDS011;62145;55.648;37.602;2023-08-07T01:53:55;9.57;;;6.35;;
73814;SDS011;62145;55.648;37.602;2023-08-07T01:56:23;11.07;;;6.57;;
73814;SDS011;62145;55.648;37.602;2023-08-07T01:58:57;11.37;;;6.43;;
73814;SDS011;62145;55.648;37.602;2023-08-07T02:01:26;11.68;;;6.70;;
73814;SDS011;62145;55.648;37.602;2023-08-07T02:03:53;13.60;;;6.63;;
73814;SDS011;62145;55.648;37.602;2023-08-07T02:06:25;14.80;;;6.28;;
73814;SDS011;62145;55.648;37.602;2023-08-07T02:08:54;12.77;;;6.82;;
73814;SDS011;62145;55.648;37.602;2023-08-07T02:11:20;10.43;;;6.37;;
73814;SDS011;62145;55.648;37.602;2023-08-07T02:13:52;9.75;;;6.55;;
73814;SDS011;62145;55.648;37.602;2023-08-07T02:16:19;11.40;;;6.57;;
73814;SDS011;62145;55.648;37.602;2023-08-07T02:18:50;10.48;;;6.30;;
73814;SDS011;62145;55.648;37.602;2023-08-07T02:21:40;8.35;;;6.25;;
73814;SDS011;62145;55.648;37.602;2023-08-07T02:24:28;11.47;;;6.77;;
73814;SDS011;62145;55.648;37.602;2023-08-07T02:26:59;8.80;;;6.15;;
73814;SDS011;62145;55.648;37.602;2023-08-07T02:29:26;10.95;;;6.47;;
73814;SDS011;62145;55.648;37.602;2023-08-07T02:31:58;12.65;;;6.50;;
73814;SDS011;62145;55.648;37.602;2023-08-07T02:34:24;14.05;;;6.95;;
73814;SDS011;62145;55.648;37.602;2023-08-07T02:37:00;10.67;;;6.40;;
73814;SDS011;62145;55.648;37.602;2023-08-07T02:39:35;10.27;;;6.15;;
73814;SDS011;62145;55.648;37.602;2023-08-07T02:42:08;9.70;;;6.13;;
73814;SDS011;62145;55.648;37.602;2023-08-07T02:44:38;15.20;;;6.75;;
73814;SDS011;62145;55.648;37.602;2023-08-07T02:47:16;10.68;;;6.25;;
73814;SDS011;62145;55.648;37.602;2023-08-07T02:49:48;11.20;;;6.30;;
73814;SDS011;62145;55.648;37.602;2023-08-07T02:52:17;12.43;;;5.90;;
73814;SDS011;62145;55.648;37.602;2023-08-07T02:54:44;11.30;;;6.10;;
73814;SDS011;62145;55.648;37.602;2023-08-07T02:57:18;12.00;;;6.55;;
73814;SDS011;62145;55.648;37.602;2023-08-07T02:59:45;12.23;;;6.80;;
73814;SDS011;62145;55.648;37.602;2023-08-07T03:02:16;12.10;;;6.23;;
73814;SDS011;62145;55.648;37.602;2023-08-07T03:04:44;12.27;;;6.50;;
73814;SDS011;62145;55.648;37.602;2023-08-07T03:07:12;11.23;;;6.47;;
73814;SDS011;62145;55.648;37.602;2023-08-07T03:09:44;11.57;;;6.82;;
73814;SDS011;62145;55.648;37.602;2023-08-07T03:12:17;11.43;;;6.60;;
73814;SDS011;62145;55.648;37.602;2023-08-07T03:14:44;11.83;;;5.97;;
73814;SDS011;62145;55.648;37.602;2023-08-07T03:17:32;11.95;;;6.70;;
73814;SDS011;62145;55.648;37.602;2023-08-07T03:20:04;13.75;;;6.35;;
73814;SDS011;62145;55.648;37.602;2023-08-07T03:22:34;9.18;;;6.10;;
73814;SDS011;62145;55.648;37.602;2023-08-07T03:25:03;9.73;;;6.10;;
73814;SDS011;62145;55.648;37.602;2023-08-07T03:27:34;14.10;;;6.23;;
73814;SDS011;62145;55.648;37.602;2023-08-07T03:30:03;10.30;;;6.05;;
73814;SDS011;62145;55.648;37.602;2023-08-07T03:32:31;11.68;;;6.70;;
73814;SDS011;62145;55.648;37.602;2023-08-07T03:34:58;11.18;;;5.95;;
73814;SDS011;62145;55.648;37.602;2023-08-07T03:37:31;8.18;;;5.32;;
73814;SDS011;62145;55.648;37.602;2023-08-07T03:39:59;8.57;;;5.60;;
73814;SDS011;62145;55.648;37.602;2023-08-07T03:42:31;10.05;;;5.43;;
73814;SDS011;62145;55.648;37.602;2023-08-07T03:44:59;8.98;;;5.65;;
73814;SDS011;62145;55.648;37.602;2023-08-07T03:47:32;7.68;;;5.43;;
73814;SDS011;62145;55.648;37.602;2023-08-07T03:49:59;9.10;;;5.28;;
73814;SDS011;62145;55.648;37.602;2023-08-07T03:52:27;9.50;;;5.50;;
73814;SDS011;62145;55.648;37.602;2023-08-07T03:54:54;8.30;;;5.32;;
73814;SDS011;62145;55.648;37.602;2023-08-07T03:57:20;8.32;;;5.25;;
73814;SDS011;62145;55.648;37.602;2023-08-07T03:59:50;9.88;;;5.53;;
73814;SDS011;62145;55.648;37.602;2023-08-07T04:02:21;8.82;;;5.20;;
73814;SDS011;62145;55.648;37.602;2023-08-07T04:04:50;9.97;;;5.17;;
73814;SDS011;62145;55.648;37.602;2023-08-07T04:07:16;8.00;;;4.75;;
73814;SDS011;62145;55.648;37.602;2023-08-07T04:09:43;7.53;;;5.15;;
73814;SDS011;62145;55.648;37.602;2023-08-07T04:12:14;7.55;;;4.88;;
73814;SDS011;62145;55.648;37.602;2023-08-07T04:14:42;6.80;;;4.27;;
73814;SDS011;62145;55.648;37.602;2023-08-07T04:17:10;8.85;;;5.00;;
73814;SDS011;62145;55.648;37.602;2023-08-07T04:19:39;8.02;;;4.90;;
73814;SDS011;62145;55.648;37.602;2023-08-07T04:22:08;6.75;;;4.70;;
73814;SDS011;62145;55.648;37.602;2023-08-07T04:24:36;9.88;;;5.28;;
73814;SDS011;62145;55.648;37.602;2023-08-07T04:27:03;8.27;;;4.60;;
73814;SDS011;62145;55.648;37.602;2023-08-07T04:29:32;7.65;;;4.80;;
73814;SDS011;62145;55.648;37.602;2023-08-07T04:32:14;7.95;;;4.90;;
73814;SDS011;62145;55.648;37.602;2023-08-07T04:34:46;6.63;;;4.75;;
73814;SDS011;62145;55.648;37.602;2023-08-07T04:37:16;6.72;;;4.68;;
73814;SDS011;62145;55.648;37.602;2023-08-07T04:39:44;8.33;;;4.87;;
73814;SDS011;62145;55.648;37.602;2023-08-07T04:42:15;5.90;;;4.55;;
73814;SDS011;62145;55.648;37.602;2023-08-07T04:44:42;8.57;;;4.07;;
73814;SDS011;62145;55.648;37.602;2023-08-07T04:47:10;8.07;;;4.53;;
73814;SDS011;62145;55.648;37.602;2023-08-07T04:49:37;9.25;;;4.80;;
73814;SDS011;62145;55.648;37.602;2023-08-07T04:52:07;7.47;;;4.10;;
73814;SDS011;62145;55.648;37.602;2023-08-07T04:54:38;6.88;;;4.20;;
73814;SDS011;62145;55.648;37.602;2023-08-07T04:57:09;7.78;;;4.50;;
73814;SDS011;62145;55.648;37.602;2023-08-07T04:59:36;8.65;;;4.15;;
73814;SDS011;62145;55.648;37.602;2023-08-07T05:02:05;7.13;;;4.60;;
73814;SDS011;62145;55.648;37.602;2023-08-07T05:04:32;6.70;;;4.20;;
73814;SDS011;62145;55.648;37.602;2023-08-07T05:07:02;6.95;;;4.00;;
73814;SDS011;62145;55.648;37.602;2023-08-07T05:09:29;7.22;;;4.43;;
73814;SDS011;62145;55.648;37.602;2023-08-07T05:11:59;6.03;;;3.95;;
73814;SDS011;62145;55.648;37.602;2023-08-07T05:14:33;6.75;;;4.32;;
73814;SDS011;62145;55.648;37.602;2023-08-07T05:17:12;5.83;;;3.87;;
73814;SDS011;62145;55.648;37.602;2023-08-07T05:19:45;7.15;;;4.22;;
73814;SDS011;62145;55.648;37.602;2023-08-07T05:22:14;8.95;;;3.83;;
73814;SDS011;62145;55.648;37.602;2023-08-07T05:24:46;7.20;;;4.00;;
73814;SDS011;62145;55.648;37.602;2023-08-07T05:27:37;6.75;;;4.00;;
73814;SDS011;62145;55.648;37.602;2023-08-07T05:30:07;6.17;;;4.10;;
73814;SDS011;62145;55.648;37.602;2023-08-07T05:32:35;7.68;;;4.13;;
73814;SDS011;62145;55.648;37.602;2023-08-07T05:35:05;6.60;;;4.40;;
73814;SDS011;62145;55.648;37.602;2023-08-07T05:37:36;7.40;;;4.15;;
73814;SDS011;62145;55.648;37.602;2023-08-07T05:40:05;7.35;;;4.10;;
73814;SDS011;62145;55.648;37.602;2023-08-07T05:42:40;5.97;;;4.17;;
73814;SDS011;62145;55.648;37.602;2023-08-07T05:45:10;7.43;;;4.72;;
73814;SDS011;62145;55.648;37.602;2023-08-07T05:47:43;11.10;;;4.93;;
73814;SDS011;62145;55.648;37.602;2023-08-07T05:50:10;9.45;;;5.05;;
73814;SDS011;62145;55.648;37.602;2023-08-07T05:52:39;8.65;;;4.70;;
73814;SDS011;62145;55.648;37.602;2023-08-07T05:55:12;7.23;;;4.50;;
73814;SDS011;62145;55.648;37.602;2023-08-07T05:57:44;5.50;;;4.10;;
73814;SDS011;62145;55.648;37.602;2023-08-07T06:00:21;8.60;;;4.13;;
73814;SDS011;62145;55.648;37.602;2023-08-07T06:02:53;5.72;;;4.22;;
73814;SDS011;62145;55.648;37.602;2023-08-07T06:05:22;8.85;;;5.05;;
73814;SDS011;62145;55.648;37.602;2023-08-07T06:07:50;10.73;;;4.57;;
73814;SDS011;62145;55.648;37.602;2023-08-07T06:10:20;7.43;;;4.47;;
73814;SDS011;62145;55.648;37.602;2023-08-07T06:12:48;7.53;;;4.20;;
73814;SDS011;62145;55.648;37.602;2023-08-07T06:15:18;6.68;;;4.38;;
73814;SDS011;62145;55.648;37.602;2023-08-07T06:17:47;6.65;;;4.05;;
73814;SDS011;62145;55.648;37.602;2023-08-07T06:20:19;8.43;;;4.20;;
73814;SDS011;62145;55.648;37.602;2023-08-07T06:22:47;6.72;;;4.20;;
73814;SDS011;62145;55.648;37.602;2023-08-07T06:25:17;6.80;;;4.00;;
73814;SDS011;62145;55.648;37.602;2023-08-07T06:27:47;6.90;;;4.10;;
73814;SDS011;62145;55.648;37.602;2023-08-07T06:30:18;7.65;;;3.90;;
73814;SDS011;62145;55.648;37.602;2023-08-07T06:35:41;10.18;;;4.03;;
73814;SDS011;62145;55.648;37.602;2023-08-07T06:38:12;7.25;;;3.70;;
73814;SDS011;62145;55.648;37.602;2023-08-07T06:40:39;8.80;;;3.35;;
73814;SDS011;62145;55.648;37.602;2023-08-07T06:43:11;8.65;;;3.70;;
73814;SDS011;62145;55.648;37.602;2023-08-07T06:45:39;6.67;;;3.83;;
73814;SDS011;62145;55.648;37.602;2023-08-07T06:48:21;7.03;;;3.80;;
73814;SDS011;62145;55.648;37.602;2023-08-07T06:50:51;8.48;;;4.32;;
73814;SDS011;62145;55.648;37.602;2023-08-07T06:53:23;6.63;;;4.00;;
73814;SDS011;62145;55.648;37.602;2023-08-07T06:55:52;7.53;;;3.70;;
73814;SDS011;62145;55.648;37.602;2023-08-07T06:58:21;8.63;;;4.43;;
73814;SDS011;62145;55.648;37.602;2023-08-07T07:00:47;7.75;;;4.05;;
73814;SDS011;62145;55.648;37.602;2023-08-07T07:03:15;9.15;;;3.92;;
73814;SDS011;62145;55.648;37.602;2023-08-07T07:05:45;10.98;;;4.05;;
73814;SDS011;62145;55.648;37.602;2023-08-07T07:08:21;6.30;;;3.70;;
73814;SDS011;62145;55.648;37.602;2023-08-07T07:10:51;5.80;;;3.70;;
73814;SDS011;62145;55.648;37.602;2023-08-07T07:13:19;6.45;;;3.70;;
73814;SDS011;62145;55.648;37.602;2023-08-07T07:15:49;5.68;;;3.78;;
73814;SDS011;62145;55.648;37.602;2023-08-07T07:18:25;7.50;;;3.70;;
73814;SDS011;62145;55.648;37.602;2023-08-07T07:20:59;6.85;;;3.22;;
73814;SDS011;62145;55.648;37.602;2023-08-07T07:23:47;10.20;;;3.73;;
73814;SDS011;62145;55.648;37.602;2023-08-07T07:26:14;7.55;;;3.65;;
73814;SDS011;62145;55.648;37.602;2023-08-07T07:28:43;6.95;;;3.60;;
73814;SDS011;62145;55.648;37.602;2023-08-07T07:31:13;5.82;;;3.40;;
73814;SDS011;62145;55.648;37.602;2023-08-07T07:33:45;7.22;;;3.30;;
73814;SDS011;62145;55.648;37.602;2023-08-07T07:36:21;5.57;;;2.87;;
73814;SDS011;62145;55.648;37.602;2023-08-07T07:38:50;7.75;;;3.40;;
73814;SDS011;62145;55.648;37.602;2023-08-07T07:41:18;5.53;;;3.10;;
73814;SDS011;62145;55.648;37.602;2023-08-07T07:43:48;7.13;;;3.47;;
73814;SDS011;62145;55.648;37.602;2023-08-07T07:46:29;6.68;;;3.17;;
73814;SDS011;62145;55.648;37.602;2023-08-07T07:49:04;6.53;;;3.17;;
73814;SDS011;62145;55.648;37.602;2023-08-07T07:51:45;8.13;;;3.45;;
73814;SDS011;62145;55.648;37.602;2023-08-07T07:54:15;8.38;;;3.50;;
73814;SDS011;62145;55.648;37.602;2023-08-07T07:56:43;6.80;;;3.13;;
73814;SDS011;62145;55.648;37.602;2023-08-07T07:59:15;7.93;;;3.10;;
73814;SDS011;62145;55.648;37.602;2023-08-07T08:04:39;9.45;;;3.30;;
73814;SDS011;62145;55.648;37.602;2023-08-07T08:07:23;9.95;;;3.65;;
73814;SDS011;62145;55.648;37.602;2023-08-07T08:09:52;6.85;;;2.65;;
73814;SDS011;62145;55.648;37.602;2023-08-07T08:12:21;6.15;;;2.90;;
73814;SDS011;62145;55.648;37.602;2023-08-07T08:14:49;5.57;;;2.97;;
73814;SDS011;62145;55.648;37.602;2023-08-07T08:17:17;6.32;;;3.10;;
73814;SDS011;62145;55.648;37.602;2023-08-07T08:19:48;7.05;;;3.00;;
73814;SDS011;62145;55.648;37.602;2023-08-07T08:22:19;5.28;;;3.08;;
73814;SDS011;62145;55.648;37.602;2023-08-07T08:24:47;6.45;;;2.90;;
73814;SDS011;62145;55.648;37.602;2023-08-07T08:27:16;5.47;;;2.80;;
73814;SDS011;62145;55.648;37.602;2023-08-07T08:29:45;8.48;;;2.88;;
73814;SDS011;62145;55.648;37.602;2023-08-07T08:32:23;9.48;;;3.35;;
73814;SDS011;62145;55.648;37.602;2023-08-07T08:34:52;6.82;;;2.63;;
73814;SDS011;62145;55.648;37.602;2023-08-07T08:37:24;5.07;;;3.10;;
73814;SDS011;62145;55.648;37.602;2023-08-07T08:39:57;8.37;;;3.20;;
73814;SDS011;62145;55.648;37.602;2023-08-07T08:42:25;12.25;;;3.30;;
73814;SDS011;62145;55.648;37.602;2023-08-07T08:45:00;6.13;;;3.08;;
73814;SDS011;62145;55.648;37.602;2023-08-07T08:47:48;6.35;;;3.13;;
73814;SDS011;62145;55.648;37.602;2023-08-07T08:50:21;6.03;;;2.88;;
73814;SDS011;62145;55.648;37.602;2023-08-07T08:52:51;5.23;;;3.20;;
73814;SDS011;62145;55.648;37.602;2023-08-07T08:55:26;6.68;;;3.25;;
73814;SDS011;62145;55.648;37.602;2023-08-07T08:57:55;8.40;;;3.10;;
73814;SDS011;62145;55.648;37.602;2023-08-07T09:00:26;6.13;;;2.95;;
73814;SDS011;62145;55.648;37.602;2023-08-07T09:02:58;8.73;;;3.17;;
73814;SDS011;62145;55.648;37.602;2023-08-07T09:05:52;7.63;;;2.70;;
73814;SDS011;62145;55.648;37.602;2023-08-07T09:08:28;7.47;;;3.00;;
73814;SDS011;62145;55.648;37.602;2023-08-07T09:10:59;7.45;;;2.90;;
73814;SDS011;62145;55.648;37.602;2023-08-07T09:13:28;9.90;;;2.92;;
73814;SDS011;62145;55.648;37.602;2023-08-07T09:15:55;5.18;;;2.60;;
73814;SDS011;62145;55.648;37.602;2023-08-07T09:18:30;6.63;;;3.13;;
73814;SDS011;62145;55.648;37.602;2023-08-07T09:20:59;6.22;;;2.55;;
73814;SDS011;62145;55.648;37.602;2023-08-07T09:23:29;9.25;;;2.92;;
73814;SDS011;62145;55.648;37.602;2023-08-07T09:26:02;7.43;;;2.78;;
73814;SDS011;62145;55.648;37.602;2023-08-07T09:28:30;6.63;;;2.88;;
73814;SDS011;62145;55.648;37.602;2023-08-07T09:31:06;5.80;;;2.57;;
73814;SDS011;62145;55.648;37.602;2023-08-07T09:33:35;6.38;;;2.55;;
73814;SDS011;62145;55.648;37.602;2023-08-07T09:36:06;5.30;;;2.65;;
73814;SDS011;62145;55.648;37.602;2023-08-07T09:38:36;7.95;;;2.90;;
73814;SDS011;62145;55.648;37.602;2023-08-07T09:41:07;6.88;;;2.95;;
73814;SDS011;62145;55.648;37.602;2023-08-07T09:43:36;6.87;;;2.80;;
73814;SDS011;62145;55.648;37.602;2023-08-07T09:46:06;6.68;;;2.70;;
73814;SDS011;62145;55.648;37.602;2023-08-07T09:48:40;6.70;;;2.88;;
73814;SDS011;62145;55.648;37.602;2023-08-07T09:51:10;5.05;;;2.88;;
73814;SDS011;62145;55.648;37.602;2023-08-07T09:53:38;6.38;;;2.72;;
73814;SDS011;62145;55.648;37.602;2023-08-07T09:56:11;8.23;;;3.00;;
73814;SDS011;62145;55.648;37.602;2023-08-07T09:58:47;6.57;;;2.67;;
73814;SDS011;62145;55.648;37.602;2023-08-07T10:01:20;6.47;;;2.63;;
73814;SDS011;62145;55.648;37.602;2023-08-07T10:03:48;9.90;;;3.22;;
73814;SDS011;62145;55.648;37.602;2023-08-07T10:06:15;5.82;;;2.90;;
73814;SDS011;62145;55.648;37.602;2023-08-07T10:08:45;7.63;;;2.93;;
73814;SDS011;62145;55.648;37.602;2023-08-07T10:11:13;6.35;;;2.88;;
73814;SDS011;62145;55.648;37.602;2023-08-07T10:13:44;7.43;;;2.88;;
73814;SDS011;62145;55.648;37.602;2023-08-07T10:16:12;4.55;;;2.60;;
73814;SDS011;62145;55.648;37.602;2023-08-07T10:18:40;6.40;;;2.90;;
73814;SDS011;62145;55.648;37.602;2023-08-07T10:21:11;5.20;;;2.60;;
73814;SDS011;62145;55.648;37.602;2023-08-07T10:23:46;4.95;;;2.70;;
73814;SDS011;62145;55.648;37.602;2023-08-07T10:26:21;6.60;;;2.90;;
73814;SDS011;62145;55.648;37.602;2023-08-07T10:28:52;7.15;;;2.70;;
73814;SDS011;62145;55.648;37.602;2023-08-07T10:31:22;6.88;;;2.92;;
73814;SDS011;62145;55.648;37.602;2023-08-07T10:33:53;7.10;;;2.87;;
73814;SDS011;62145;55.648;37.602;2023-08-07T10:36:31;7.00;;;2.72;;
73814;SDS011;62145;55.648;37.602;2023-08-07T10:39:09;5.60;;;2.78;;
73814;SDS011;62145;55.648;37.602;2023-08-07T10:41:40;5.65;;;3.08;;
73814;SDS011;62145;55.648;37.602;2023-08-07T10:44:21;5.95;;;3.10;;
73814;SDS011;62145;55.648;37.602;2023-08-07T10:46:51;4.90;;;2.43;;
73814;SDS011;62145;55.648;37.602;2023-08-07T10:49:40;5.28;;;2.65;;
73814;SDS011;62145;55.648;37.602;2023-08-07T10:52:15;5.75;;;3.15;;
73814;SDS011;62145;55.648;37.602;2023-08-07T10:54:45;6.45;;;3.20;;
73814;SDS011;62145;55.648;37.602;2023-08-07T10:57:17;4.97;;;2.67;;
73814;SDS011;62145;55.648;37.602;2023-08-07T11:00:03;6.73;;;3.20;;
73814;SDS011;62145;55.648;37.602;2023-08-07T11:02:31;7.88;;;3.42;;
73814;SDS011;62145;55.648;37.602;2023-08-07T11:04:58;5.43;;;2.92;;
73814;SDS011;62145;55.648;37.602;2023-08-07T11:07:27;8.95;;;3.20;;
73814;SDS011;62145;55.648;37.602;2023-08-07T11:09:54;5.15;;;2.63;;
73814;SDS011;62145;55.648;37.602;2023-08-07T11:12:25;6.93;;;3.43;;
73814;SDS011;62145;55.648;37.602;2023-08-07T11:14:56;5.68;;;2.95;;
73814;SDS011;62145;55.648;37.602;2023-08-07T11:17:30;9.73;;;3.28;;
73814;SDS011;62145;55.648;37.602;2023-08-07T11:20:03;5.35;;;2.90;;
73814;SDS011;62145;55.648;37.602;2023-08-07T11:22:31;5.80;;;2.92;;
73814;SDS011;62145;55.648;37.602;2023-08-07T11:25:04;6.67;;;3.40;;
73814;SDS011;62145;55.648;37.602;2023-08-07T11:27:39;5.93;;;3.28;;
73814;SDS011;62145;55.648;37.602;2023-08-07T11:30:05;6.18;;;3.05;;
73814;SDS011;62145;55.648;37.602;2023-08-07T11:32:32;5.60;;;3.20;;
73814;SDS011;62145;55.648;37.602;2023-08-07T11:34:58;5.95;;;3.50;;
73814;SDS011;62145;55.648;37.602;2023-08-07T11:37:23;8.27;;;3.50;;
73814;SDS011;62145;55.648;37.602;2023-08-07T11:39:50;6.97;;;3.45;;
73814;SDS011;62145;55.648;37.602;2023-08-07T11:42:16;6.97;;;3.17;;
73814;SDS011;62145;55.648;37.602;2023-08-07T11:44:42;5.22;;;2.95;;
73814;SDS011;62145;55.648;37.602;2023-08-07T11:47:08;5.90;;;3.13;;
73814;SDS011;62145;55.648;37.602;2023-08-07T11:49:35;5.45;;;3.40;;
73814;SDS011;62145;55.648;37.602;2023-08-07T11:52:02;6.22;;;3.10;;
73814;SDS011;62145;55.648;37.602;2023-08-07T11:54:28;7.55;;;3.70;;
73814;SDS011;62145;55.648;37.602;2023-08-07T11:56:54;5.17;;;3.20;;
73814;SDS011;62145;55.648;37.602;2023-08-07T11:59:20;5.80;;;3.17;;
73814;SDS011;62145;55.648;37.602;2023-08-07T12:01:46;6.28;;;3.45;;
73814;SDS011;62145;55.648;37.602;2023-08-07T12:04:12;6.05;;;3.63;;
73814;SDS011;62145;55.648;37.602;2023-08-07T12:06:38;7.10;;;3.67;;
73814;SDS011;62145;55.648;37.602;2023-08-07T12:09:18;9.03;;;3.80;;
73814;SDS011;62145;55.648;37.602;2023-08-07T12:11:44;7.20;;;3.88;;
73814;SDS011;62145;55.648;37.602;2023-08-07T12:14:13;6.40;;;3.72;;
73814;SDS011;62145;55.648;37.602;2023-08-07T12:16:43;8.40;;;3.80;;
73814;SDS011;62145;55.648;37.602;2023-08-07T12:19:14;8.63;;;4.10;;
73814;SDS011;62145;55.648;37.602;2023-08-07T12:21:42;8.75;;;3.90;;
73814;SDS011;62145;55.648;37.602;2023-08-07T12:24:11;7.82;;;3.65;;
73814;SDS011;62145;55.648;37.602;2023-08-07T12:26:47;5.78;;;4.03;;
73814;SDS011;62145;55.648;37.602;2023-08-07T12:29:16;8.77;;;3.67;;
73814;SDS011;62145;55.648;37.602;2023-08-07T12:31:46;8.33;;;3.40;;
73814;SDS011;62145;55.648;37.602;2023-08-07T12:34:16;8.18;;;3.95;;
73814;SDS011;62145;55.648;37.602;2023-08-07T12:36:48;8.55;;;3.65;;
73814;SDS011;62145;55.648;37.602;2023-08-07T12:39:15;8.32;;;4.35;;
73814;SDS011;62145;55.648;37.602;2023-08-07T12:41:50;9.93;;;4.10;;
73814;SDS011;62145;55.648;37.602;2023-08-07T12:44:17;5.23;;;3.67;;
73814;SDS011;62145;55.648;37.602;2023-08-07T12:46:47;8.60;;;3.40;;
73814;SDS011;62145;55.648;37.602;2023-08-07T12:49:15;8.05;;;3.90;;
73814;SDS011;62145;55.648;37.602;2023-08-07T12:51:46;7.63;;;3.28;;
73814;SDS011;62145;55.648;37.602;2023-08-07T12:54:14;6.65;;;3.50;;
73814;SDS011;62145;55.648;37.602;2023-08-07T12:56:43;7.50;;;3.70;;
73814;SDS011;62145;55.648;37.602;2023-08-07T12:59:11;9.48;;;3.95;;
73814;SDS011;62145;55.648;37.602;2023-08-07T13:01:40;8.95;;;3.78;;
73814;SDS011;62145;55.648;37.602;2023-08-07T13:04:12;5.60;;;3.17;;
73814;SDS011;62145;55.648;37.602;2023-08-07T13:06:47;6.47;;;3.70;;
73814;SDS011;62145;55.648;37.602;2023-08-07T13:09:16;6.63;;;3.57;;
73814;SDS011;62145;55.648;37.602;2023-08-07T13:11:44;7.13;;;4.03;;
73814;SDS011;62145;55.648;37.602;2023-08-07T13:14:15;7.10;;;3.92;;
73814;SDS011;62145;55.648;37.602;2023-08-07T13:16:56;6.95;;;3.97;;
73814;SDS011;62145;55.648;37.602;2023-08-07T13:19:23;5.95;;;3.33;;
73814;SDS011;62145;55.648;37.602;2023-08-07T13:21:53;7.07;;;3.70;;
73814;SDS011;62145;55.648;37.602;2023-08-07T13:24:19;11.60;;;4.20;;
73814;SDS011;62145;55.648;37.602;2023-08-07T13:26:47;8.93;;;3.85;;
73814;SDS011;62145;55.648;37.602;2023-08-07T13:29:15;7.32;;;3.95;;
73814;SDS011;62145;55.648;37.602;2023-08-07T13:31:49;6.35;;;3.42;;
73814;SDS011;62145;55.648;37.602;2023-08-07T13:34:16;5.43;;;3.23;;
73814;SDS011;62145;55.648;37.602;2023-08-07T13:36:46;6.15;;;3.60;;
73814;SDS011;62145;55.648;37.602;2023-08-07T13:39:14;7.00;;;3.60;;
73814;SDS011;62145;55.648;37.602;2023-08-07T13:41:43;6.75;;;4.03;;
73814;SDS011;62145;55.648;37.602;2023-08-07T13:44:09;7.30;;;3.37;;
73814;SDS011;62145;55.648;37.602;2023-08-07T13:46:40;9.23;;;3.53;;
73814;SDS011;62145;55.648;37.602;2023-08-07T13:49:08;8.52;;;3.85;;
73814;SDS011;62145;55.648;37.602;2023-08-07T13:51:35;6.32;;;3.40;;
73814;SDS011;62145;55.648;37.602;2023-08-07T13:54:08;10.07;;;4.13;;
73814;SDS011;62145;55.648;37.602;2023-08-07T13:56:40;7.93;;;4.00;;
73814;SDS011;62145;55.648;37.602;2023-08-07T13:59:07;7.75;;;3.75;;
73814;SDS011;62145;55.648;37.602;2023-08-07T14:01:37;10.57;;;3.70;;
73814;SDS011;62145;55.648;37.602;2023-08-07T14:04:04;5.45;;;3.40;;
73814;SDS011;62145;55.648;37.602;2023-08-07T14:06:37;6.13;;;4.00;;
73814;SDS011;62145;55.648;37.602;2023-08-07T14:09:05;9.70;;;4.20;;
73814;SDS011;62145;55.648;37.602;2023-08-07T14:11:32;7.18;;;3.90;;
73814;SDS011;62145;55.648;37.602;2023-08-07T14:13:59;7.40;;;4.03;;
73814;SDS011;62145;55.648;37.602;2023-08-07T14:16:28;5.78;;;3.60;;
73814;SDS011;62145;55.648;37.602;2023-08-07T14:19:05;8.35;;;4.18;;
73814;SDS011;62145;55.648;37.602;2023-08-07T14:21:36;8.60;;;3.73;;
73814;SDS011;62145;55.648;37.602;2023-08-07T14:24:05;9.02;;;4.10;;
73814;SDS011;62145;55.648;37.602;2023-08-07T14:29:43;5.55;;;3.20;;
73814;SDS011;62145;55.648;37.602;2023-08-07T14:32:17;8.30;;;3.28;;
73814;SDS011;62145;55.648;37.602;2023-08-07T14:34:46;6.10;;;3.27;;
73814;SDS011;62145;55.648;37.602;2023-08-07T14:37:17;7.15;;;3.70;;
73814;SDS011;62145;55.648;37.602;2023-08-07T14:39:45;8.43;;;3.83;;
73814;SDS011;62145;55.648;37.602;2023-08-07T14:42:12;6.50;;;3.80;;
73814;SDS011;62145;55.648;37.602;2023-08-07T14:44:40;6.68;;;3.05;;
73814;SDS011;62145;55.648;37.602;2023-08-07T14:47:07;6.57;;;3.97;;
73814;SDS011;62145;55.648;37.602;2023-08-07T14:49:36;7.13;;;3.75;;
73814;SDS011;62145;55.648;37.602;2023-08-07T14:52:10;8.90;;;4.13;;
73814;SDS011;62145;55.648;37.602;2023-08-07T14:54:38;10.32;;;4.35;;
73814;SDS011;62145;55.648;37.602;2023-08-07T14:57:14;7.43;;;4.07;;
73814;SDS011;62145;55.648;37.602;2023-08-07T14:59:41;7.17;;;4.00;;
73814;SDS011;62145;55.648;37.602;2023-08-07T15:02:15;8.30;;;4.20;;